createdAt,value
2019-05-11T00:01:12.192Z,17.67
2019-05-11T00:03:39.239Z,18.62
2019-05-11T00:06:06.597Z,16.57
2019-05-11T00:08:33.647Z,16.75
2019-05-11T00:11:00.696Z,16.17
2019-05-11T00:13:27.663Z,16.10
2019-05-11T00:15:54.905Z,17.35
2019-05-11T00:18:22.274Z,17.15
2019-05-11T00:20:49.410Z,16.32
2019-05-11T00:23:16.578Z,16.50
2019-05-11T00:25:43.821Z,17.27
2019-05-11T00:28:11.097Z,16.32
2019-05-11T00:30:38.265Z,17.05
2019-05-11T00:33:05.485Z,17.25
2019-05-11T00:35:32.948Z,17.73
2019-05-11T00:38:00.208Z,18.10
2019-05-11T00:40:27.663Z,18.52
2019-05-11T00:42:54.921Z,15.65
2019-05-11T00:45:22.279Z,14.85
2019-05-11T00:47:49.535Z,15.30
2019-05-11T00:50:16.901Z,15.03
2019-05-11T00:52:44.296Z,14.30
2019-05-11T00:55:12.220Z,14.60
2019-05-11T00:57:39.282Z,14.43
2019-05-11T01:00:07.971Z,15.88
2019-05-11T01:02:35.523Z,14.40
2019-05-11T01:05:05.173Z,15.40
2019-05-11T01:07:33.314Z,15.65
2019-05-11T01:10:00.776Z,15.63
2019-05-11T01:12:28.136Z,15.45
2019-05-11T01:14:55.603Z,15.30
2019-05-11T01:17:22.949Z,14.50
2019-05-11T01:19:50.415Z,14.93
2019-05-11T01:22:17.563Z,15.75
2019-05-11T01:24:44.925Z,16.15
2019-05-11T01:27:14.446Z,17.25
2019-05-11T01:29:41.688Z,15.95
2019-05-11T01:32:09.253Z,14.47
2019-05-11T01:34:36.096Z,15.13
2019-05-11T01:37:03.758Z,14.75
2019-05-11T01:39:31.588Z,13.58
2019-05-11T01:41:58.801Z,14.33
2019-05-11T01:44:26.349Z,15.38
2019-05-11T01:46:54.019Z,14.53
2019-05-11T01:49:21.686Z,14.23
2019-05-11T01:51:48.690Z,14.03
2019-05-11T01:54:16.036Z,13.68
2019-05-11T01:56:43.763Z,13.70
2019-05-11T01:59:11.126Z,11.05
2019-05-11T02:01:38.355Z,10.32
2019-05-11T02:04:05.586Z,10.43
2019-05-11T02:06:33.270Z,11.57
2019-05-11T02:09:00.524Z,14.33
2019-05-11T02:11:28.270Z,12.60
2019-05-11T02:13:55.323Z,11.68
2019-05-11T02:16:22.851Z,12.45
2019-05-11T02:18:49.994Z,10.82
2019-05-11T02:21:19.194Z,13.60
2019-05-11T02:23:46.264Z,12.10
2019-05-11T02:26:13.622Z,11.75
2019-05-11T02:28:40.974Z,11.43
2019-05-11T02:31:08.811Z,12.07
2019-05-11T02:33:35.906Z,11.35
2019-05-11T02:36:04.145Z,12.65
2019-05-11T02:38:32.079Z,13.10
2019-05-11T02:40:59.755Z,13.22
2019-05-11T02:43:26.762Z,13.43
2019-05-11T02:45:54.690Z,12.90
2019-05-11T02:48:22.101Z,12.43
2019-05-11T02:50:49.612Z,11.88
2019-05-11T02:53:17.210Z,12.18
2019-05-11T02:55:46.054Z,10.20
2019-05-11T02:58:13.497Z,10.95
2019-05-11T03:00:44.719Z,10.58
2019-05-11T03:03:12.556Z,10.45
2019-05-11T03:05:39.650Z,9.60
2019-05-11T03:08:06.886Z,10.03
2019-05-11T03:10:34.248Z,10.23
2019-05-11T03:13:01.493Z,9.78
2019-05-11T03:15:29.249Z,10.28
2019-05-11T03:17:56.969Z,9.73
2019-05-11T03:20:23.983Z,8.78
2019-05-11T03:22:50.889Z,8.00
2019-05-11T03:25:18.031Z,7.90
2019-05-11T03:27:44.934Z,8.48
2019-05-11T03:30:12.637Z,8.30
2019-05-11T03:32:39.589Z,8.00
2019-05-11T03:35:06.669Z,7.62
2019-05-11T03:37:34.048Z,7.90
2019-05-11T03:40:01.182Z,7.03
2019-05-11T03:42:28.529Z,7.15
2019-05-11T03:44:55.795Z,7.28
2019-05-11T03:47:22.935Z,6.53
2019-05-11T03:49:49.951Z,6.60
2019-05-11T03:52:17.649Z,7.30
2019-05-11T03:54:44.548Z,13.40
2019-05-11T03:57:12.861Z,14.20
2019-05-11T03:59:40.000Z,16.80
2019-05-11T04:02:07.030Z,18.48
2019-05-11T04:04:33.851Z,19.90
2019-05-11T04:07:01.175Z,17.60
2019-05-11T04:09:28.092Z,15.35
2019-05-11T04:11:55.130Z,15.55
2019-05-11T04:14:22.651Z,15.08
2019-05-11T04:16:49.678Z,14.98
2019-05-11T04:19:17.874Z,14.98
2019-05-11T04:21:45.112Z,15.95
2019-05-11T04:24:12.366Z,17.37
2019-05-11T04:26:39.537Z,16.67
2019-05-11T04:29:06.439Z,15.65
2019-05-11T04:31:33.549Z,15.60
2019-05-11T04:34:00.467Z,14.58
2019-05-11T04:36:29.747Z,15.35
2019-05-11T04:38:56.868Z,16.05
2019-05-11T04:41:24.096Z,15.23
2019-05-11T04:43:50.884Z,16.27
2019-05-11T04:46:18.130Z,15.78
2019-05-11T04:48:45.812Z,17.37
2019-05-11T04:51:13.031Z,16.27
2019-05-11T04:53:40.032Z,16.93
2019-05-11T04:56:07.139Z,14.78
2019-05-11T04:58:34.290Z,15.80
2019-05-11T05:01:01.333Z,15.03
2019-05-11T05:03:40.420Z,16.57
2019-05-11T05:05:57.800Z,18.05
2019-05-11T05:08:26.378Z,19.70
2019-05-11T05:10:58.648Z,18.20
2019-05-11T05:13:28.695Z,15.93
2019-05-11T05:15:52.043Z,14.25
2019-05-11T05:18:20.985Z,15.25
2019-05-11T05:20:48.915Z,13.85
2019-05-11T05:23:15.995Z,13.10
2019-05-11T05:25:45.182Z,12.68
2019-05-11T05:28:12.116Z,12.73
2019-05-11T05:30:39.354Z,11.43
2019-05-11T05:33:06.386Z,9.75
2019-05-11T05:35:33.444Z,7.03
2019-05-11T05:38:03.541Z,4.85
2019-05-11T05:40:30.783Z,3.15
2019-05-11T05:42:57.732Z,3.33
2019-05-11T05:45:25.517Z,3.27
2019-05-11T05:47:52.711Z,6.17
2019-05-11T05:50:20.480Z,3.92
2019-05-11T05:52:48.544Z,3.37
2019-05-11T05:55:15.698Z,2.80
2019-05-11T05:57:42.999Z,3.50
2019-05-11T06:00:10.631Z,3.58
2019-05-11T06:02:37.872Z,3.30
2019-05-11T06:05:05.782Z,4.40
2019-05-11T06:07:33.104Z,3.62
2019-05-11T06:10:00.307Z,3.37
2019-05-11T06:12:27.410Z,3.30
2019-05-11T06:14:54.315Z,3.60
2019-05-11T06:17:21.605Z,3.10
2019-05-11T06:19:48.505Z,3.00
2019-05-11T06:22:15.743Z,3.75
2019-05-11T06:24:43.093Z,3.65
2019-05-11T06:27:10.707Z,3.40
2019-05-11T06:29:38.351Z,2.85
2019-05-11T06:32:05.606Z,3.37
2019-05-11T06:34:32.448Z,3.22
2019-05-11T06:36:59.451Z,3.00
2019-05-11T06:39:26.632Z,3.00
2019-05-11T06:41:53.631Z,3.00
2019-05-11T06:44:20.816Z,3.00
2019-05-11T06:46:47.718Z,2.98
2019-05-11T06:49:14.664Z,3.10
2019-05-11T06:51:42.584Z,3.08
2019-05-11T06:54:09.625Z,3.33
2019-05-11T06:56:37.720Z,2.77
2019-05-11T06:59:04.877Z,3.05
2019-05-11T07:01:31.763Z,2.85
2019-05-11T07:03:59.300Z,3.08
2019-05-11T07:06:30.356Z,3.40
2019-05-11T07:08:55.475Z,3.02
2019-05-11T07:11:22.519Z,3.20
2019-05-11T07:13:49.764Z,3.40
2019-05-11T07:16:17.403Z,3.90
2019-05-11T07:18:44.503Z,3.65
2019-05-11T07:21:13.122Z,4.10
2019-05-11T07:23:40.366Z,3.90
2019-05-11T07:26:07.402Z,3.25
2019-05-11T07:28:34.501Z,3.00
2019-05-11T07:31:01.451Z,3.00
2019-05-11T07:33:28.819Z,3.00
2019-05-11T07:35:58.122Z,3.00
2019-05-11T07:38:24.956Z,2.98
2019-05-11T07:40:52.175Z,2.30
2019-05-11T07:43:19.310Z,2.47
2019-05-11T07:45:48.006Z,2.50
2019-05-11T07:48:15.702Z,2.10
2019-05-11T07:50:43.355Z,2.10
2019-05-11T07:53:10.430Z,1.92
2019-05-11T07:55:38.508Z,2.10
2019-05-11T07:58:08.038Z,2.15
2019-05-11T08:00:37.414Z,2.08
2019-05-11T08:03:03.876Z,2.20
2019-05-11T08:05:31.243Z,2.45
2019-05-11T08:07:59.512Z,1.80
2019-05-11T08:10:28.149Z,1.60
2019-05-11T08:12:55.334Z,2.25
2019-05-11T08:15:22.255Z,1.70
2019-05-11T08:17:49.201Z,1.62
2019-05-11T08:20:18.496Z,1.92
2019-05-11T08:22:45.183Z,1.60
2019-05-11T08:25:12.474Z,1.57
2019-05-11T08:27:39.520Z,1.10
2019-05-11T08:30:10.930Z,1.15
2019-05-11T08:32:38.695Z,1.10
2019-05-11T08:35:08.549Z,1.30
2019-05-11T08:37:35.603Z,1.30
2019-05-11T08:40:04.792Z,1.55
2019-05-11T08:42:31.597Z,1.57
2019-05-11T08:45:15.256Z,1.47
2019-05-11T08:47:28.318Z,1.40
2019-05-11T08:49:55.622Z,1.32
2019-05-11T08:52:22.426Z,1.30
2019-05-11T08:54:49.586Z,1.90
2019-05-11T08:57:17.983Z,1.42
2019-05-11T08:59:45.110Z,1.42
2019-05-11T09:02:12.262Z,1.30
2019-05-11T09:04:41.925Z,1.30
2019-05-11T09:07:08.036Z,1.40
2019-05-11T09:09:35.242Z,1.30
2019-05-11T09:12:02.959Z,1.22
2019-05-11T09:14:29.874Z,1.35
2019-05-11T09:16:57.733Z,1.50
2019-05-11T09:19:28.234Z,0.90
2019-05-11T09:21:54.959Z,1.00
2019-05-11T09:24:22.031Z,1.10
2019-05-11T09:26:49.027Z,0.90
2019-05-11T09:29:17.970Z,1.00
2019-05-11T09:31:44.767Z,1.17
2019-05-11T09:34:11.816Z,1.55
2019-05-11T09:36:39.364Z,0.93
2019-05-11T09:39:08.443Z,0.90
2019-05-11T09:41:38.104Z,1.10
2019-05-11T09:44:04.915Z,1.10
2019-05-11T09:46:31.943Z,1.20
2019-05-11T09:48:59.239Z,1.20
2019-05-11T09:51:28.592Z,1.22
2019-05-11T09:53:55.358Z,1.00
2019-05-11T09:56:22.808Z,1.12
2019-05-11T09:58:49.598Z,1.07
2019-05-11T10:01:18.320Z,1.07
2019-05-11T10:03:47.922Z,1.00
2019-05-11T10:06:14.583Z,1.00
2019-05-11T10:08:41.688Z,1.20
2019-05-11T10:11:08.681Z,1.22
2019-05-11T10:13:35.575Z,1.30
2019-05-11T10:16:07.302Z,1.22
2019-05-11T10:18:32.316Z,1.32
2019-05-11T10:20:59.332Z,1.20
2019-05-11T10:23:27.887Z,1.10
2019-05-11T10:25:55.139Z,1.10
2019-05-11T10:28:22.054Z,1.05
2019-05-11T10:30:49.053Z,1.00
2019-05-11T10:33:18.641Z,1.20
2019-05-11T10:35:45.194Z,1.20
2019-05-11T10:38:12.235Z,1.27
2019-05-11T10:40:39.236Z,1.25
2019-05-11T10:43:07.947Z,1.30
2019-05-11T10:45:37.734Z,1.20
2019-05-11T10:48:04.333Z,0.90
2019-05-11T10:50:31.227Z,0.98
2019-05-11T10:52:59.151Z,1.00
2019-05-11T12:21:27.728Z,4.72
2019-05-11T12:23:55.330Z,11.63
2019-05-11T12:26:23.106Z,4.25
2019-05-11T12:28:50.214Z,24.32
2019-05-11T12:31:18.402Z,2.70
2019-05-11T12:33:48.309Z,2.58
2019-05-11T12:36:14.979Z,1.62
2019-05-11T12:38:41.992Z,2.35
2019-05-11T12:41:09.280Z,1.87
2019-05-11T12:43:38.189Z,1.45
2019-05-11T12:46:07.964Z,1.40
2019-05-11T12:48:35.025Z,1.55
2019-05-11T12:51:01.926Z,1.50
2019-05-11T12:53:29.191Z,1.30
2019-05-11T12:55:58.739Z,1.55
2019-05-11T12:58:25.101Z,1.50
2019-05-11T13:00:52.210Z,1.92
2019-05-11T13:03:19.415Z,1.80
2019-05-11T13:05:48.418Z,1.50
2019-05-11T13:08:15.691Z,7.90
2019-05-11T13:10:42.821Z,2.20
2019-05-11T13:13:09.825Z,1.52
2019-05-11T13:15:38.738Z,1.70
2019-05-11T13:18:08.178Z,1.80
2019-05-11T13:20:34.895Z,2.50
2019-05-11T13:23:01.916Z,3.22
2019-05-11T13:25:28.858Z,2.10
2019-05-11T13:27:58.137Z,2.45
2019-05-11T13:30:27.643Z,3.45
2019-05-11T13:32:54.115Z,3.62
2019-05-11T13:35:21.025Z,7.15
2019-05-11T13:37:48.325Z,5.72
2019-05-11T13:40:15.727Z,5.17
2019-05-11T13:42:44.727Z,3.20
2019-05-11T13:45:11.832Z,5.70
2019-05-11T13:47:51.673Z,5.58
2019-05-11T13:50:08.337Z,3.90
2019-05-11T13:52:35.723Z,5.10
2019-05-11T13:55:05.184Z,2.55
2019-05-11T13:57:32.608Z,2.22
2019-05-11T13:59:59.562Z,3.00
2019-05-11T14:02:28.530Z,2.20
2019-05-11T14:04:55.542Z,2.20
2019-05-11T14:07:22.747Z,2.10
2019-05-11T14:09:49.956Z,2.27
2019-05-11T14:12:18.220Z,2.12
2019-05-11T14:14:47.734Z,1.92
2019-05-11T14:17:14.353Z,1.62
2019-05-11T14:19:41.184Z,1.95
2019-05-11T14:22:08.791Z,1.55
2019-05-11T14:24:37.657Z,1.90
2019-05-11T14:27:04.855Z,2.27
2019-05-11T14:29:32.039Z,2.35
2019-05-11T14:31:59.246Z,1.98
2019-05-11T14:34:28.379Z,1.87
2019-05-11T14:36:58.103Z,1.85
2019-05-11T14:39:24.931Z,2.20
2019-05-11T14:41:52.121Z,2.17
2019-05-11T14:44:19.027Z,2.33
2019-05-11T14:46:47.781Z,2.12
2019-05-11T14:49:14.771Z,2.58
2019-05-11T14:51:41.811Z,2.30
2019-05-11T14:54:09.051Z,2.10
2019-05-11T14:56:38.100Z,2.10
2019-05-11T14:59:05.725Z,2.05
2019-05-11T15:01:32.526Z,2.00
2019-05-11T15:03:59.590Z,2.10
2019-05-11T15:06:27.969Z,2.02
2019-05-11T15:08:55.145Z,2.10
2019-05-11T15:11:22.631Z,1.80
2019-05-11T15:13:49.714Z,2.20
2019-05-11T15:16:18.756Z,2.15
2019-05-11T15:18:48.238Z,1.98
2019-05-11T15:21:14.651Z,1.72
2019-05-11T15:23:42.679Z,1.95
2019-05-11T15:26:10.158Z,1.82
2019-05-11T15:28:37.959Z,2.00
2019-05-11T15:31:07.859Z,1.90
2019-05-11T15:33:34.772Z,1.90
2019-05-11T15:36:02.100Z,1.80
2019-05-11T15:38:28.937Z,1.80
2019-05-11T15:40:57.945Z,1.72
2019-05-11T15:43:25.128Z,2.10
2019-05-11T15:45:52.035Z,2.22
2019-05-11T15:48:19.174Z,2.20
2019-05-11T15:50:48.421Z,1.90
2019-05-11T15:53:17.670Z,3.00
2019-05-11T15:55:44.307Z,3.05
2019-05-11T15:58:11.543Z,2.30
2019-05-11T16:00:40.015Z,2.80
2019-05-11T16:03:08.240Z,38.85
2019-05-11T16:05:35.495Z,12.47
2019-05-11T16:08:02.563Z,16.00
2019-05-11T16:10:29.465Z,19.07
2019-05-11T16:12:58.532Z,18.60
2019-05-11T16:15:27.686Z,36.40
2019-05-11T16:17:55.118Z,30.57
2019-05-11T16:20:22.062Z,52.27
2019-05-11T16:22:49.265Z,41.70
2019-05-11T16:25:19.234Z,31.17
2019-05-11T16:27:45.628Z,16.75
2019-05-11T16:30:13.547Z,14.98
2019-05-11T16:32:40.571Z,48.87
2019-05-11T16:35:08.963Z,24.10
2019-05-11T16:37:38.022Z,46.15
2019-05-11T16:40:06.567Z,13.95
2019-05-11T16:42:33.635Z,15.43
2019-05-11T16:45:00.458Z,10.72
2019-05-11T16:47:28.478Z,18.02
2019-05-11T16:49:57.852Z,11.57
2019-05-11T16:52:25.178Z,11.00
2019-05-11T16:54:52.339Z,8.10
2019-05-11T16:57:19.267Z,8.35
2019-05-11T16:59:47.904Z,7.20
2019-05-11T17:02:15.063Z,9.00
2019-05-11T17:04:41.858Z,8.93
2019-05-11T17:07:09.124Z,8.33
2019-05-11T17:09:37.798Z,11.68
2019-05-11T17:12:05.863Z,17.12
2019-05-11T17:14:32.781Z,18.67
2019-05-11T17:16:59.999Z,15.15
2019-05-11T17:19:42.247Z,17.02
2019-05-11T17:21:56.016Z,14.30
2019-05-11T17:24:23.220Z,10.68
2019-05-11T17:26:50.650Z,8.80
2019-05-11T17:29:18.583Z,9.28
2019-05-11T17:31:45.663Z,11.15
2019-05-11T17:34:12.964Z,10.55
2019-05-11T17:36:40.101Z,12.23
2019-05-11T17:39:07.501Z,11.80
2019-05-11T17:41:34.855Z,10.60
2019-05-11T17:44:02.921Z,13.53
2019-05-11T17:46:29.755Z,14.00
2019-05-11T17:48:56.901Z,16.75
2019-05-11T17:51:25.168Z,18.32
2019-05-11T17:53:52.292Z,22.10
2019-05-11T17:56:19.449Z,24.45
2019-05-11T17:58:48.365Z,23.83
2019-05-11T18:01:15.647Z,13.90
2019-05-11T18:03:42.542Z,11.40
2019-05-11T18:06:09.533Z,8.55
2019-05-11T18:08:36.759Z,10.30
2019-05-11T18:11:03.870Z,12.10
2019-05-11T18:13:30.919Z,11.10
2019-05-11T18:15:58.033Z,11.38
2019-05-11T18:18:25.675Z,12.25
2019-05-11T18:20:52.775Z,13.45
2019-05-11T18:23:19.616Z,15.63
2019-05-11T18:25:47.982Z,16.57
2019-05-11T18:28:15.088Z,17.85
2019-05-11T18:30:42.229Z,19.42
2019-05-11T18:33:09.131Z,23.98
2019-05-11T18:35:36.271Z,22.90
2019-05-11T18:38:03.695Z,24.37
2019-05-11T18:40:30.736Z,24.37
2019-05-11T18:42:57.899Z,21.90
2019-05-11T18:45:25.077Z,19.27
2019-05-11T18:47:52.227Z,21.60
2019-05-11T18:50:29.775Z,21.02
2019-05-11T18:52:49.072Z,20.35
2019-05-11T18:55:18.899Z,23.60
2019-05-11T18:57:48.730Z,21.45
2019-05-11T19:00:18.251Z,21.35
2019-05-11T19:02:44.646Z,23.47
2019-05-11T19:05:11.708Z,29.15
2019-05-11T19:07:38.867Z,30.70
2019-05-11T19:10:08.430Z,31.05
2019-05-11T19:12:37.702Z,31.10
2019-05-11T19:15:08.460Z,39.03
2019-05-11T19:17:38.266Z,31.57
2019-05-11T19:20:08.416Z,35.65
2019-05-11T19:22:37.058Z,35.75
2019-05-11T19:25:08.748Z,37.90
2019-05-11T19:27:35.439Z,38.25
2019-05-11T19:30:07.988Z,38.73
2019-05-11T19:32:35.051Z,40.33
2019-05-11T19:35:03.369Z,39.03
2019-05-11T19:37:30.395Z,33.50
2019-05-11T19:39:58.031Z,34.05
2019-05-11T19:42:25.410Z,31.80
2019-05-11T19:44:52.407Z,30.17
2019-05-11T19:47:19.349Z,27.02
2019-05-11T19:49:47.913Z,23.25
2019-05-11T19:52:14.974Z,19.82
2019-05-11T19:54:42.604Z,20.90
2019-05-11T19:57:09.830Z,18.15
2019-05-11T19:59:38.746Z,15.85
2019-05-11T20:02:08.461Z,11.45
2019-05-11T20:04:35.299Z,10.23
2019-05-11T20:07:02.618Z,12.45
2019-05-11T20:09:29.714Z,60.10
2019-05-11T20:11:58.233Z,45.23
2019-05-11T20:14:25.240Z,33.95
2019-05-11T20:16:52.135Z,27.58
2019-05-11T20:19:19.402Z,29.90
2019-05-11T20:21:48.442Z,49.48
2019-05-11T20:24:15.435Z,35.60
2019-05-11T20:26:42.846Z,28.40
2019-05-11T20:29:09.960Z,28.07
2019-05-11T20:31:37.171Z,21.17
2019-05-11T20:34:04.661Z,21.82
2019-05-11T20:36:31.708Z,17.12
2019-05-11T20:38:58.604Z,13.75
2019-05-11T20:41:27.805Z,9.50
2019-05-11T20:43:54.353Z,15.75
2019-05-11T20:46:21.496Z,31.30
2019-05-11T20:48:48.582Z,30.68
2019-05-11T20:51:29.726Z,26.30
2019-05-11T20:53:46.923Z,25.50
2019-05-11T20:56:14.675Z,24.37
2019-05-11T20:58:54.392Z,22.30
2019-05-11T21:01:23.555Z,47.45
2019-05-11T21:03:50.587Z,51.92
2019-05-11T21:06:18.465Z,51.68
2019-05-11T21:08:48.057Z,54.45
2019-05-11T21:11:14.871Z,54.38
2019-05-11T21:13:41.910Z,53.75
2019-05-11T21:16:09.092Z,50.83
2019-05-11T21:18:38.126Z,51.18
2019-05-11T21:21:05.491Z,56.05
2019-05-11T21:23:32.590Z,59.38
2019-05-11T21:25:59.495Z,53.35
2019-05-11T21:28:30.417Z,50.55
2019-05-11T21:30:55.329Z,53.80
2019-05-11T21:33:22.270Z,51.77
2019-05-11T21:35:49.393Z,52.67
2019-05-11T21:38:17.703Z,50.48
2019-05-11T21:40:44.903Z,47.43
2019-05-11T21:43:11.998Z,43.52
2019-05-11T21:45:40.780Z,42.13
2019-05-11T21:48:08.151Z,41.48
2019-05-11T21:50:37.005Z,39.78
2019-05-11T21:53:04.067Z,41.05
2019-05-11T21:55:31.595Z,41.95
2019-05-11T21:57:58.492Z,43.23
2019-05-11T22:00:28.145Z,42.85
2019-05-11T22:02:55.739Z,43.60
2019-05-11T22:05:22.885Z,42.43
2019-05-11T22:07:49.811Z,39.75
2019-05-11T22:10:17.897Z,38.30
2019-05-11T22:12:45.095Z,37.67
2019-05-11T22:15:12.591Z,37.73
2019-05-11T22:17:44.158Z,39.18
2019-05-11T22:20:13.436Z,38.78
2019-05-11T22:22:40.560Z,41.28
2019-05-11T22:25:08.271Z,41.53
2019-05-11T22:27:38.394Z,41.15
2019-05-11T22:30:08.327Z,39.80
2019-05-11T22:32:38.290Z,39.03
2019-05-11T22:35:12.355Z,36.58
2019-05-11T22:37:39.809Z,35.52
2019-05-11T22:40:08.373Z,35.33
2019-05-11T22:42:35.954Z,35.90
2019-05-11T22:45:08.125Z,32.98
2019-05-11T22:47:34.691Z,30.80
2019-05-11T22:50:05.098Z,32.20
2019-05-11T22:52:36.382Z,33.78
2019-05-11T22:55:01.803Z,29.52
2019-05-11T22:57:28.798Z,33.53
2019-05-11T22:59:55.960Z,33.65
2019-05-11T23:02:24.733Z,34.43
2019-05-11T23:04:51.881Z,34.88
2019-05-11T23:07:18.676Z,33.50
2019-05-11T23:09:46.118Z,33.92
2019-05-11T23:12:13.585Z,34.58
2019-05-11T23:14:40.649Z,36.15
2019-05-11T23:17:08.173Z,37.93
2019-05-11T23:19:35.276Z,36.77
2019-05-11T23:22:05.387Z,33.42
2019-05-11T23:24:31.960Z,32.30
2019-05-11T23:26:59.063Z,32.17
2019-05-11T23:29:27.909Z,31.45
2019-05-11T23:31:55.368Z,36.15
2019-05-11T23:34:22.407Z,36.70
2019-05-11T23:36:49.607Z,36.85
2019-05-11T23:39:17.871Z,37.05
2019-05-11T23:41:45.238Z,36.17
2019-05-11T23:44:12.260Z,33.28
2019-05-11T23:46:39.294Z,28.85
2019-05-11T23:49:08.844Z,26.23
2019-05-11T23:51:35.793Z,25.85
2019-05-11T23:54:02.921Z,25.10
2019-05-11T23:56:30.536Z,22.82
2019-05-11T23:58:57.955Z,22.73
